Terminal Aerodrome Forecast
Issued by NWS Charleston, WV

Home | Current Version | Previous Version | Text Only | Print | Product List | Glossary On
Versions: 1 2 3 4 5 6 7 8 9 10 11 12 13 14 15 16 17 18 19 20 21 22 23 24 25
916
FTUS41 KRLX 251458 AAB
TAFPKB
TAF AMD
KPKB 251458Z 2515/2612 22005KT P6SM BKN025 BKN050
     FM251700 23008KT P6SM SCT035
     FM260800 00000KT 5SM BR SCT080=

USA.gov is the U.S. government's official web portal to all federal, state and local government web resources and services.